createdAt,value
2019-01-19T00:00:27.591Z,19.33
2019-01-19T00:03:20.175Z,21.70
2019-01-19T00:05:51.741Z,21.70
2019-01-19T00:08:29.104Z,23.40
2019-01-19T00:11:12.530Z,28.07
2019-01-19T00:13:46.586Z,34.43
2019-01-19T00:16:29.804Z,39.37
2019-01-19T00:19:20.548Z,37.57
2019-01-19T00:22:06.746Z,35.63
2019-01-19T00:24:56.025Z,38.30
2019-01-19T00:27:30.655Z,33.90
2019-01-19T00:30:11.155Z,32.87
2019-01-19T00:33:04.958Z,34.73
2019-01-19T00:35:52.798Z,32.23
2019-01-19T00:38:39.205Z,30.13
2019-01-19T00:41:22.249Z,43.90
2019-01-19T00:43:53.763Z,42.17
2019-01-19T00:46:27.767Z,44.07
2019-01-19T00:48:59.324Z,36.10
2019-01-19T00:51:39.415Z,35.93
2019-01-19T00:54:17.718Z,35.97
2019-01-19T00:56:57.998Z,37.20
2019-01-19T00:59:28.753Z,32.97
2019-01-19T01:02:09.119Z,30.00
2019-01-19T01:04:46.287Z,26.17
2019-01-19T01:07:29.855Z,21.50
2019-01-19T01:10:01.428Z,23.33
2019-01-19T01:12:44.578Z,21.23
2019-01-19T01:15:19.156Z,18.80
2019-01-19T01:17:50.437Z,15.77
2019-01-19T01:20:37.065Z,15.90
2019-01-19T01:23:11.447Z,12.87
2019-01-19T01:25:59.667Z,10.63
2019-01-19T01:28:31.198Z,13.53
2019-01-19T01:31:05.486Z,11.60
2019-01-19T01:33:54.758Z,10.90
2019-01-19T01:36:26.324Z,12.47
2019-01-19T01:39:12.789Z,11.67
2019-01-19T01:41:58.964Z,13.10
2019-01-19T01:44:54.321Z,11.13
2019-01-19T01:47:49.775Z,13.07
2019-01-19T01:50:37.533Z,12.23
2019-01-19T01:53:23.859Z,9.67
2019-01-19T01:55:52.887Z,10.83
2019-01-19T01:58:24.413Z,9.23
2019-01-19T02:00:55.973Z,9.40
2019-01-19T02:03:27.505Z,10.60
2019-01-19T02:06:18.486Z,9.17
2019-01-19T02:09:16.925Z,9.30
2019-01-19T02:11:54.388Z,9.67
2019-01-19T02:14:25.913Z,10.93
2019-01-19T02:17:05.649Z,11.50
2019-01-19T02:19:46.084Z,10.57
2019-01-19T02:22:38.382Z,11.57
2019-01-19T02:25:12.627Z,13.83
2019-01-19T02:27:49.522Z,14.83
2019-01-19T02:30:35.746Z,15.00
2019-01-19T02:33:13.446Z,12.37
2019-01-19T02:36:06.592Z,12.97
2019-01-19T02:38:44.039Z,12.90
2019-01-19T02:41:30.510Z,12.87
2019-01-19T02:44:02.369Z,12.73
2019-01-19T02:46:48.709Z,16.10
2019-01-19T02:49:39.622Z,15.80
2019-01-19T02:52:23.007Z,15.60
2019-01-19T02:55:19.965Z,18.70
2019-01-19T02:58:07.353Z,14.87
2019-01-19T03:00:59.686Z,14.97
2019-01-19T03:03:46.060Z,14.47
2019-01-19T03:06:26.371Z,18.13
2019-01-19T03:09:15.881Z,15.73
2019-01-19T03:11:56.193Z,18.67
2019-01-19T03:14:48.530Z,18.27
2019-01-19T03:17:22.731Z,18.60
2019-01-19T03:19:56.743Z,16.60
2019-01-19T03:22:37.057Z,18.50
2019-01-19T03:25:26.749Z,18.83
2019-01-19T03:28:14.361Z,17.93
2019-01-19T03:30:57.592Z,16.90
2019-01-19T03:33:40.839Z,17.80
2019-01-19T03:36:28.727Z,15.50
2019-01-19T03:39:09.361Z,19.17
2019-01-19T03:41:55.717Z,18.23
2019-01-19T03:44:27.284Z,20.47
2019-01-19T03:47:18.010Z,22.83
2019-01-19T03:50:21.031Z,21.17
2019-01-19T03:53:10.453Z,20.23
2019-01-19T03:55:56.709Z,22.80
2019-01-19T03:58:43.002Z,18.43
2019-01-19T04:01:31.666Z,18.47
2019-01-19T04:04:09.027Z,17.67
2019-01-19T04:06:57.177Z,17.73
2019-01-19T04:09:43.640Z,18.10
2019-01-19T04:12:23.954Z,18.77
2019-01-19T04:15:11.721Z,17.77
2019-01-19T04:17:45.961Z,17.07
2019-01-19T04:20:26.181Z,15.70
2019-01-19T04:22:55.130Z,19.63
2019-01-19T04:25:26.666Z,17.07
2019-01-19T04:27:54.968Z,14.77
2019-01-19T04:30:23.355Z,16.87
2019-01-19T04:32:51.627Z,17.47
2019-01-19T04:35:19.916Z,18.33
2019-01-19T04:37:48.222Z,15.30
2019-01-19T04:40:16.476Z,16.87
2019-01-19T04:42:45.018Z,15.67
2019-01-19T04:45:13.398Z,16.03
2019-01-19T04:47:41.677Z,18.17
2019-01-19T04:50:11.179Z,17.87
2019-01-19T04:52:39.488Z,17.03
2019-01-19T04:55:08.330Z,17.67
2019-01-19T04:57:36.608Z,16.10
2019-01-19T05:00:08.252Z,16.97
2019-01-19T05:02:37.267Z,16.03
2019-01-19T05:05:06.187Z,15.70
2019-01-19T05:07:34.574Z,18.13
2019-01-19T05:10:03.639Z,20.37
2019-01-19T05:12:31.920Z,22.47
2019-01-19T05:15:00.305Z,22.77
2019-01-19T05:17:28.845Z,21.27
2019-01-19T05:19:57.198Z,19.57
2019-01-19T05:22:25.516Z,21.00
2019-01-19T05:24:53.873Z,19.87
2019-01-19T05:27:22.146Z,21.40
2019-01-19T05:29:50.461Z,18.73
2019-01-19T05:32:19.087Z,17.50
2019-01-19T05:34:47.653Z,17.20
2019-01-19T05:37:15.957Z,18.80
2019-01-19T05:39:44.255Z,15.90
2019-01-19T05:42:12.614Z,15.93
2019-01-19T05:44:40.935Z,17.33
2019-01-19T05:47:09.288Z,15.23
2019-01-19T05:49:37.578Z,16.33
2019-01-19T05:52:05.906Z,15.27
2019-01-19T05:54:34.168Z,15.33
2019-01-19T05:57:02.453Z,14.43
2019-01-19T05:59:30.778Z,17.87
2019-01-19T06:01:59.221Z,17.33
2019-01-19T06:04:28.392Z,16.57
2019-01-19T06:06:56.631Z,15.43
2019-01-19T06:09:24.900Z,16.83
2019-01-19T06:11:53.255Z,17.47
2019-01-19T06:14:21.560Z,18.40
2019-01-19T06:16:49.914Z,19.37
2019-01-19T06:19:18.562Z,19.60
2019-01-19T06:21:48.515Z,16.80
2019-01-19T06:24:16.795Z,20.33
2019-01-19T06:26:45.079Z,19.97
2019-01-19T06:29:13.478Z,18.40
2019-01-19T06:31:41.748Z,20.60
2019-01-19T06:34:10.026Z,20.63
2019-01-19T06:36:38.426Z,21.07
2019-01-19T06:39:08.930Z,19.67
2019-01-19T06:41:37.216Z,19.43
2019-01-19T06:44:05.607Z,18.20
2019-01-19T06:46:33.884Z,17.27
2019-01-19T06:49:02.233Z,17.97
2019-01-19T06:51:30.536Z,17.57
2019-01-19T06:54:01.632Z,18.30
2019-01-19T06:56:29.436Z,18.37
2019-01-19T06:58:57.826Z,17.97
2019-01-19T07:01:26.110Z,20.27
2019-01-19T07:03:54.466Z,18.53
2019-01-19T07:06:23.597Z,23.27
2019-01-19T07:08:51.880Z,25.97
2019-01-19T07:11:20.156Z,26.33
2019-01-19T07:13:48.530Z,24.73
2019-01-19T07:16:16.806Z,23.93
2019-01-19T07:18:45.076Z,26.50
2019-01-19T07:21:13.399Z,22.97
2019-01-19T07:23:41.679Z,22.73
2019-01-19T07:26:10.022Z,28.20
2019-01-19T07:28:38.328Z,30.07
2019-01-19T07:31:06.605Z,37.67
2019-01-19T07:33:34.879Z,34.60
2019-01-19T07:36:03.199Z,30.93
2019-01-19T07:38:31.467Z,30.80
2019-01-19T07:40:59.752Z,27.73
2019-01-19T07:43:28.541Z,26.47
2019-01-19T07:45:56.969Z,29.13
2019-01-19T07:48:25.315Z,31.27
2019-01-19T07:50:53.632Z,32.13
2019-01-19T07:53:21.900Z,31.30
2019-01-19T07:55:50.177Z,31.67
2019-01-19T07:58:18.487Z,34.97
2019-01-19T08:00:46.766Z,31.73
2019-01-19T08:03:15.043Z,32.03
2019-01-19T08:05:43.348Z,34.73
2019-01-19T08:08:11.626Z,32.47
2019-01-19T08:10:39.903Z,30.40
2019-01-19T08:13:08.225Z,25.53
2019-01-19T08:15:36.498Z,26.60
2019-01-19T08:18:05.141Z,31.00
2019-01-19T08:20:33.452Z,25.73
2019-01-19T08:23:01.728Z,26.40
2019-01-19T08:25:30.005Z,26.27
2019-01-19T08:27:58.443Z,27.90
2019-01-19T08:30:28.724Z,25.33
2019-01-19T08:32:56.995Z,26.70
2019-01-19T08:35:25.367Z,27.97
2019-01-19T08:37:53.670Z,27.10
2019-01-19T08:40:33.757Z,25.40
2019-01-19T08:43:15.988Z,27.77
2019-01-19T08:45:44.635Z,24.90
2019-01-19T08:48:13.570Z,25.73
2019-01-19T08:50:41.840Z,26.17
2019-01-19T08:53:10.355Z,26.43
2019-01-19T08:55:38.630Z,26.00
2019-01-19T08:58:06.899Z,27.23
2019-01-19T09:00:35.427Z,33.10
2019-01-19T09:03:03.912Z,35.03
2019-01-19T09:05:32.187Z,31.80
2019-01-19T09:08:01.481Z,26.47
2019-01-19T09:10:30.748Z,26.03
2019-01-19T09:12:59.170Z,25.87
2019-01-19T09:15:27.673Z,27.70
2019-01-19T09:17:55.954Z,27.47
2019-01-19T09:20:24.463Z,27.50
2019-01-19T09:22:54.447Z,25.77
2019-01-19T09:25:22.930Z,28.93
2019-01-19T09:27:51.304Z,29.33
2019-01-19T09:30:21.788Z,36.47
2019-01-19T09:32:50.297Z,29.83
2019-01-19T09:35:18.920Z,33.20
2019-01-19T09:37:47.191Z,28.37
2019-01-19T09:40:16.576Z,28.00
2019-01-19T09:42:45.131Z,24.97
2019-01-19T09:45:20.549Z,25.63
2019-01-19T09:47:49.075Z,26.77
2019-01-19T09:50:18.796Z,30.33
2019-01-19T09:52:47.140Z,24.83
2019-01-19T09:55:15.522Z,26.20
2019-01-19T09:57:44.018Z,22.87
2019-01-19T10:00:21.774Z,23.60
2019-01-19T10:02:50.048Z,25.23
2019-01-19T10:05:23.749Z,24.83
2019-01-19T10:07:52.281Z,23.97
2019-01-19T10:10:26.080Z,25.00
2019-01-19T10:12:54.487Z,24.90
2019-01-19T10:15:23.213Z,19.97
2019-01-19T10:17:51.696Z,24.03
2019-01-19T10:20:29.321Z,25.57
2019-01-19T10:22:57.805Z,27.17
2019-01-19T10:25:26.177Z,27.57
2019-01-19T10:27:54.706Z,26.67
2019-01-19T10:30:29.025Z,25.90
2019-01-19T10:32:57.440Z,20.93
2019-01-19T10:35:25.965Z,19.73
2019-01-19T10:37:56.737Z,23.10
2019-01-19T10:40:24.451Z,32.67
2019-01-19T10:42:52.769Z,27.50
2019-01-19T10:45:30.265Z,29.83
2019-01-19T10:47:58.570Z,34.47
2019-01-19T10:50:27.057Z,29.60
2019-01-19T10:52:55.548Z,30.33
2019-01-19T10:55:24.695Z,29.43
2019-01-19T10:57:53.187Z,30.23
2019-01-19T11:00:23.767Z,36.57
2019-01-19T11:02:52.290Z,34.33
2019-01-19T11:05:20.766Z,33.27
2019-01-19T11:07:49.724Z,30.13
2019-01-19T11:10:29.189Z,31.97
2019-01-19T11:12:58.571Z,29.43
2019-01-19T11:15:26.920Z,28.07
2019-01-19T11:17:55.437Z,30.20
2019-01-19T11:20:29.132Z,29.40
2019-01-19T11:22:57.923Z,32.70
2019-01-19T11:25:26.456Z,32.80
2019-01-19T11:27:54.741Z,33.10
2019-01-19T11:30:25.124Z,33.83
2019-01-19T11:32:53.501Z,34.30
2019-01-19T11:35:21.996Z,35.47
2019-01-19T11:37:50.411Z,32.10
2019-01-19T11:40:23.759Z,30.93
2019-01-19T11:42:52.279Z,29.93
2019-01-19T11:45:23.596Z,29.90
2019-01-19T11:47:52.125Z,33.17
2019-01-19T11:50:20.412Z,29.63
2019-01-19T11:52:48.904Z,30.90
2019-01-19T11:55:19.245Z,31.87
2019-01-19T11:57:49.112Z,31.90
2019-01-19T12:00:19.494Z,30.90
2019-01-19T12:02:47.804Z,30.57
2019-01-19T12:05:17.859Z,32.30
2019-01-19T12:07:46.345Z,31.70
2019-01-19T12:10:17.450Z,30.70
2019-01-19T12:12:45.717Z,31.43
2019-01-19T12:15:15.063Z,31.30
2019-01-19T12:17:43.376Z,34.87
2019-01-19T12:20:17.903Z,40.00
2019-01-19T12:22:46.389Z,43.90
2019-01-19T12:25:17.957Z,42.90
2019-01-19T12:27:46.447Z,48.60
2019-01-19T12:30:17.646Z,50.03
2019-01-19T12:32:45.959Z,44.87
2019-01-19T12:35:14.439Z,41.47
2019-01-19T12:37:42.711Z,36.57
2019-01-19T12:40:13.936Z,34.73
2019-01-19T12:42:42.631Z,33.93
2019-01-19T12:45:14.321Z,33.30
2019-01-19T12:47:42.591Z,34.63
2019-01-19T12:50:16.782Z,36.20
2019-01-19T12:52:45.263Z,34.73
2019-01-19T12:55:14.583Z,33.23
2019-01-19T12:57:42.859Z,37.03
2019-01-19T13:00:17.043Z,39.03
2019-01-19T13:02:45.560Z,36.37
2019-01-19T13:05:17.171Z,34.20
2019-01-19T13:07:46.152Z,40.37
2019-01-19T13:10:29.608Z,35.67
2019-01-19T13:12:58.896Z,39.47
2019-01-19T13:15:33.198Z,37.70
2019-01-19T13:18:23.602Z,34.63
2019-01-19T13:21:10.112Z,32.87
2019-01-19T13:23:59.704Z,34.83
2019-01-19T13:26:45.997Z,30.50
2019-01-19T13:29:32.505Z,32.23
2019-01-19T13:32:15.635Z,33.73
2019-01-19T13:35:05.119Z,38.23
2019-01-19T13:37:51.439Z,33.03
2019-01-19T13:40:37.576Z,32.10
2019-01-19T13:43:27.002Z,30.67
2019-01-19T13:45:58.649Z,33.03
2019-01-19T13:48:42.198Z,41.50
2019-01-19T13:51:16.835Z,41.87
2019-01-19T13:54:00.192Z,50.70
2019-01-19T13:56:37.398Z,51.87
2019-01-19T13:59:28.208Z,48.37
2019-01-19T14:02:14.617Z,50.57
2019-01-19T14:05:00.997Z,50.80
2019-01-19T14:07:44.571Z,50.37
2019-01-19T14:10:22.066Z,54.67
2019-01-19T14:12:56.527Z,55.53
2019-01-19T14:15:29.265Z,60.93
2019-01-19T14:18:03.667Z,58.33
2019-01-19T14:20:42.058Z,61.10
2019-01-19T14:23:19.512Z,59.63
2019-01-19T14:25:53.830Z,57.97
2019-01-19T14:28:25.472Z,63.03
2019-01-19T14:31:08.850Z,64.90
2019-01-19T14:33:43.597Z,60.23
2019-01-19T14:36:32.970Z,61.87
2019-01-19T14:39:31.764Z,59.63
2019-01-19T14:42:22.923Z,62.27
2019-01-19T14:45:00.485Z,59.90
2019-01-19T14:47:49.915Z,56.53
2019-01-19T14:50:31.905Z,59.63
2019-01-19T14:53:27.439Z,62.53
2019-01-19T14:56:07.870Z,59.53
2019-01-19T14:58:42.251Z,62.97
2019-01-19T15:01:34.739Z,68.13
2019-01-19T15:04:08.952Z,65.23
2019-01-19T15:06:52.691Z,68.23
2019-01-19T15:09:29.893Z,65.13
2019-01-19T15:12:07.318Z,69.07
2019-01-19T15:14:47.883Z,65.60
2019-01-19T15:17:19.534Z,66.80
2019-01-19T15:20:12.319Z,66.73
2019-01-19T15:22:43.961Z,66.17
2019-01-19T15:25:21.733Z,62.93
2019-01-19T15:28:05.294Z,59.47
2019-01-19T15:30:45.519Z,58.03
2019-01-19T15:33:32.185Z,57.07
2019-01-19T15:36:06.355Z,51.03
2019-01-19T15:38:58.741Z,53.47
2019-01-19T15:41:41.832Z,52.07
2019-01-19T15:44:16.511Z,63.70
2019-01-19T15:47:16.359Z,60.80
2019-01-19T15:50:22.723Z,57.53
2019-01-19T15:53:12.296Z,54.07
2019-01-19T15:55:58.511Z,55.97
2019-01-19T15:58:38.858Z,58.00
2019-01-19T16:01:16.110Z,56.00
2019-01-19T16:03:59.402Z,56.50
2019-01-19T16:06:39.872Z,54.70
2019-01-19T16:09:18.154Z,57.33
2019-01-19T16:12:02.628Z,55.03
2019-01-19T16:14:49.101Z,53.63
2019-01-19T16:17:26.603Z,53.47
2019-01-19T16:20:16.190Z,53.10
2019-01-19T16:22:50.911Z,55.80
2019-01-19T16:25:37.249Z,60.03
2019-01-19T16:28:17.524Z,57.40
2019-01-19T16:31:06.883Z,58.00
2019-01-19T16:33:41.564Z,59.13
2019-01-19T16:36:13.179Z,70.80
2019-01-19T16:38:56.827Z,62.93
2019-01-19T16:41:34.141Z,61.30
2019-01-19T16:44:31.387Z,61.37
2019-01-19T16:47:11.530Z,85.73
2019-01-19T16:49:45.827Z,107.20
2019-01-19T16:52:35.663Z,96.47
2019-01-19T16:55:19.175Z,81.83
2019-01-19T16:57:58.723Z,71.90
2019-01-19T17:00:39.457Z,69.93
2019-01-19T17:03:22.764Z,66.37
2019-01-19T17:06:03.408Z,74.00
2019-01-19T17:08:37.768Z,55.70
2019-01-19T17:11:35.079Z,54.40
2019-01-19T17:14:18.737Z,50.17
2019-01-19T17:16:53.127Z,52.10
2019-01-19T17:19:42.779Z,59.63
2019-01-19T17:22:17.461Z,48.40
2019-01-19T17:25:24.392Z,47.83
2019-01-19T17:28:07.880Z,44.43
2019-01-19T17:31:05.105Z,44.73
2019-01-19T17:33:39.571Z,47.20
2019-01-19T17:36:20.165Z,42.43
2019-01-19T17:39:11.161Z,38.63
2019-01-19T17:41:54.755Z,38.90
2019-01-19T17:44:35.023Z,35.03
2019-01-19T17:47:15.225Z,32.87
2019-01-19T17:49:58.712Z,34.47
2019-01-19T17:52:30.409Z,35.83
2019-01-19T17:55:20.083Z,34.87
2019-01-19T17:58:03.646Z,36.80
2019-01-19T18:00:40.974Z,35.43
2019-01-19T18:03:15.342Z,35.67
2019-01-19T18:05:49.674Z,34.93
2019-01-19T18:08:36.187Z,35.93
2019-01-19T18:11:32.024Z,30.47
2019-01-19T18:14:03.980Z,28.97
2019-01-19T18:16:38.143Z,33.47
2019-01-19T18:19:24.413Z,30.27
2019-01-19T18:22:12.552Z,36.27
2019-01-19T18:25:04.743Z,31.33
2019-01-19T18:27:54.202Z,27.77
2019-01-19T18:30:28.899Z,23.67
2019-01-19T18:33:30.355Z,28.27
2019-01-19T18:36:01.962Z,25.23
2019-01-19T18:38:57.271Z,21.47
2019-01-19T18:41:43.561Z,26.43
2019-01-19T18:44:20.805Z,20.57
2019-01-19T18:47:08.682Z,19.27
2019-01-19T18:49:59.734Z,15.57
2019-01-19T18:52:35.924Z,12.67
2019-01-19T18:55:10.373Z,12.87
2019-01-19T18:57:54.123Z,13.80
2019-01-19T19:00:49.807Z,13.87
2019-01-19T19:03:37.437Z,12.93
2019-01-19T19:06:18.064Z,9.20
2019-01-19T19:08:58.328Z,11.60
2019-01-19T19:11:38.689Z,13.03
2019-01-19T19:14:25.150Z,13.00
2019-01-19T19:17:11.622Z,10.97
2019-01-19T19:19:58.098Z,11.73
2019-01-19T19:22:41.623Z,13.27
2019-01-19T19:25:16.021Z,12.60
2019-01-19T19:27:50.648Z,11.97
2019-01-19T19:30:28.070Z,13.27
2019-01-19T19:33:11.290Z,11.17
2019-01-19T19:36:14.454Z,10.13
2019-01-19T19:38:54.968Z,11.30
2019-01-19T19:41:29.759Z,13.70
2019-01-19T19:44:31.683Z,12.87
2019-01-19T19:47:18.192Z,11.20
2019-01-19T19:50:22.769Z,13.37
2019-01-19T19:52:51.258Z,11.87
2019-01-19T19:55:18.670Z,14.77
2019-01-19T19:57:47.218Z,16.10
2019-01-19T20:00:16.025Z,16.43
2019-01-19T20:02:44.524Z,17.30
2019-01-19T20:05:13.359Z,16.40
2019-01-19T20:07:41.822Z,14.80
2019-01-19T20:10:17.031Z,18.73
2019-01-19T20:12:43.534Z,18.73
2019-01-19T20:15:12.028Z,24.83
2019-01-19T20:17:40.519Z,21.63
2019-01-19T20:20:10.453Z,19.17
2019-01-19T20:22:38.945Z,21.23
2019-01-19T20:25:08.036Z,20.73
2019-01-19T20:27:36.566Z,19.43
2019-01-19T20:30:08.194Z,18.17
2019-01-19T20:32:36.689Z,16.73
2019-01-19T20:35:06.323Z,17.03
2019-01-19T20:37:34.823Z,18.47
2019-01-19T20:40:04.724Z,17.60
2019-01-19T20:42:33.267Z,23.97
2019-01-19T20:45:01.770Z,22.20
2019-01-19T20:47:30.255Z,19.83
2019-01-19T20:49:58.785Z,19.97
2019-01-19T20:52:27.276Z,18.67
2019-01-19T20:54:55.778Z,18.47
2019-01-19T20:57:24.323Z,18.07
2019-01-19T20:59:52.805Z,15.63
2019-01-19T21:02:21.328Z,15.70
2019-01-19T21:04:49.872Z,14.13
2019-01-19T21:07:18.396Z,17.23
2019-01-19T21:09:48.439Z,17.97
2019-01-19T21:12:16.984Z,17.07
2019-01-19T21:14:45.485Z,17.00
2019-01-19T21:17:13.985Z,18.67
2019-01-19T21:19:43.306Z,17.63
2019-01-19T21:22:11.788Z,16.17
2019-01-19T21:24:40.294Z,14.33
2019-01-19T21:27:08.981Z,14.90
2019-01-19T21:29:37.635Z,16.00
2019-01-19T21:32:06.307Z,15.17
2019-01-19T21:34:34.840Z,16.13
2019-01-19T21:37:03.335Z,16.07
2019-01-19T21:39:31.824Z,17.43
2019-01-19T21:42:00.348Z,20.13
2019-01-19T21:44:28.850Z,18.43
2019-01-19T21:46:57.345Z,17.33
2019-01-19T21:49:25.901Z,16.33
2019-01-19T21:51:54.393Z,14.53
2019-01-19T21:54:22.881Z,14.80
2019-01-19T21:56:51.403Z,19.43
2019-01-19T21:59:19.887Z,15.43
2019-01-19T22:01:48.388Z,16.03
2019-01-19T22:04:16.925Z,15.93
2019-01-19T22:06:45.409Z,17.43
2019-01-19T22:09:13.900Z,15.93
2019-01-19T22:11:42.436Z,14.23
2019-01-19T22:14:10.937Z,16.63
2019-01-19T22:16:39.471Z,15.60
2019-01-19T22:19:08.155Z,16.70
2019-01-19T22:21:37.461Z,17.10
2019-01-19T22:24:05.955Z,15.27
2019-01-19T22:26:34.883Z,17.93
2019-01-19T22:29:03.386Z,15.63
2019-01-19T22:31:31.873Z,16.97
2019-01-19T22:34:00.407Z,17.43
2019-01-19T22:36:28.900Z,15.73
2019-01-19T22:38:57.405Z,18.17
2019-01-19T22:41:25.822Z,16.23
2019-01-19T22:43:54.631Z,18.57
2019-01-19T22:46:23.127Z,14.53
2019-01-19T22:48:51.512Z,16.57
2019-01-19T22:51:20.005Z,16.13
2019-01-19T22:53:48.502Z,17.90
2019-01-19T22:56:16.821Z,16.23
2019-01-19T22:58:45.106Z,17.23
2019-01-19T23:01:19.422Z,17.53
2019-01-19T23:03:47.812Z,17.03
2019-01-19T23:06:16.183Z,18.40
2019-01-19T23:08:44.538Z,16.30
2019-01-19T23:11:12.882Z,15.60
2019-01-19T23:13:41.169Z,15.57
2019-01-19T23:16:09.449Z,15.83
2019-01-19T23:18:37.772Z,15.33
2019-01-19T23:21:06.049Z,15.33
2019-01-19T23:23:35.087Z,16.53
2019-01-19T23:26:03.850Z,17.70
2019-01-19T23:28:32.129Z,15.70
2019-01-19T23:31:00.405Z,15.83
2019-01-19T23:33:28.729Z,18.80
2019-01-19T23:35:57.071Z,14.37
2019-01-19T23:38:25.353Z,16.20
2019-01-19T23:40:53.741Z,16.10
2019-01-19T23:43:22.236Z,14.67
2019-01-19T23:45:50.598Z,16.03
2019-01-19T23:48:18.922Z,15.00
2019-01-19T23:50:47.213Z,15.63
2019-01-19T23:53:15.578Z,15.10
2019-01-19T23:55:43.893Z,14.37
2019-01-19T23:58:12.180Z,16.33
